Coto Laurel, PR (00780)

10:44 AM AST on July 28, 2016 (GMT -0400)
Juana Diaz 1 | | Change Station

Elev 31 ft 17.99 °N, 66.53 °W | Updated 29 seconds ago

Scattered Clouds
Scattered Clouds
87.8 °F
Feels Like 97 °F
N
8.3
Wind Variable Wind from SSE
Gusts 12.3 mph

Today
High -- | Low -- °F
--% Chance of Precip.
Yesterday
High -- | Low -- °F
Precip. -- in
Pressure 30.02 in
Visibility 9.0 miles
Clouds Few 2800 ft
Scattered Clouds 3300 ft
Scattered Clouds 12000 ft
Heat Index 97 °F
Dew Point 74 °F
Humidity 64%
Rainfall 0.00 in
Snow Depth Not available.
6:03 AM 7:01 PM
Waning Crescent, 31% visible
METAR TJSJ 281356Z 05007KT 9SM FEW028 SCT033 SCT120 30/24 A3002 RMK AO2 SLP166 HZ ALQDS T03000239
Pressure 30.02 in
Visibility 9.0 miles
Clouds Few 2800 ft
Scattered Clouds 3300 ft
Scattered Clouds 12000 ft
Heat Index 97 °F
Dew Point 74 °F
Humidity 64%
Rainfall 0.00 in
Snow Depth Not available.
6:03 AM 7:01 PM
Waning Crescent, 31% visible
METAR TJSJ 281356Z 05007KT 9SM FEW028 SCT033 SCT120 30/24 A3002 RMK AO2 SLP166 HZ ALQDS T03000239

10-Day Weather Forecast

Almanac

Astronomy

Jul. 28, 2016 Rise Set
Actual Time
Civil Twilight
Nautical Twilight
Astronomical Twilight
Moon
Length of Visible Light
Length of Day
Tomorrow will be .
, % of the Moon is Illuminated

Today's Extremes

State Highs State Lows

Community

WunderPhotos

Upload Photos

1,928,117 photos uploaded!

WunderBlog® & News

Nearby

Air Quality

  Air Quality AQ Index Pollutant
Not available.

Snow Depth

Station Depth Elevation

Earthquake Activity

City Distance Mag. Time & Date
Minimum magnitude displayed is 2.5.

Coastal Water Temperatures

Place Temperature

Stations

Nearby Weather Stations

Station Location Temp. Windchill Dew Point Humidity Wind Precip. Elev Updated Type
                   

Watches & Warnings

There are currently no watches in effect.